Time;durP1;ratioP1;P1;durP2;ratioP2;P2;SDS_P1;SDS_P2;PMS_P1;PMS_P2;Temp;Humidity;BMP_temperature;BMP_pressure;BME280_temperature;BME280_humidity;BME280_pressure;Samples;Min_cycle;Max_cycle;Signal;HPM_P1;HPM_P2
2022/01/18 00:00:41;;;;;;;3.20;1.50;;;;;;;18.01;45.77;103682.84;5038458;28;20026;-46
2022/01/18 00:03:07;;;;;;;3.22;1.63;;;;;;;17.99;45.67;103681.13;5014022;28;20037;-42
2022/01/18 00:05:33;;;;;;;1.60;0.98;;;;;;;18.03;45.76;103686.34;5039769;28;20057;-46
2022/01/18 00:07:58;;;;;;;3.60;1.20;;;;;;;18.02;45.89;103679.22;5038109;28;20108;-44
2022/01/18 00:10:27;;;;;;;2.80;1.70;;;;;;;17.98;45.71;103687.50;5034163;28;20052;-46
2022/01/18 00:15:38;;;;;;;2.63;1.38;;;;;;;17.99;45.73;103696.44;5039836;28;20041;-48
2022/01/18 00:20:41;;;;;;;3.10;1.48;;;;;;;17.98;45.68;103692.88;5042883;28;20029;-43
2022/01/18 00:23:08;;;;;;;1.58;1.05;;;;;;;17.98;45.75;103694.69;5041821;28;20060;-46
2022/01/18 00:25:35;;;;;;;2.92;1.27;;;;;;;17.97;45.77;103701.91;5007822;28;20038;-43
2022/01/18 00:28:01;;;;;;;1.90;1.10;;;;;;;17.97;45.84;103701.06;5037156;28;20033;-47
2022/01/18 00:35:35;;;;;;;3.85;1.52;;;;;;;17.95;45.89;103702.97;5034349;28;20125;-46
2022/01/18 00:38:02;;;;;;;2.90;1.30;;;;;;;17.92;45.78;103703.13;5042642;28;20125;-45
2022/01/18 00:40:28;;;;;;;3.25;1.42;;;;;;;17.94;45.75;103706.63;5025935;28;20052;-46
2022/01/18 00:42:53;;;;;;;3.13;1.40;;;;;;;17.93;45.97;103705.75;5012959;28;20387;-46
2022/01/18 00:45:19;;;;;;;3.20;1.30;;;;;;;17.91;45.83;103704.09;5030952;28;20642;-47
2022/01/18 00:47:46;;;;;;;3.40;1.20;;;;;;;17.88;45.89;103704.28;5042064;28;20536;-48
2022/01/18 00:50:11;;;;;;;1.65;1.05;;;;;;;17.91;46.09;103712.19;5037525;28;20052;-47
2022/01/18 00:52:41;;;;;;;2.15;1.40;;;;;;;17.88;45.78;103706.97;5035461;28;20033;-47
2022/01/18 00:55:07;;;;;;;2.22;1.27;;;;;;;17.89;45.95;103709.59;5034548;28;20049;-46
2022/01/18 00:57:32;;;;;;;3.38;1.48;;;;;;;17.88;45.68;103712.34;5035038;28;20064;-46
2022/01/18 00:59:58;;;;;;;1.25;0.98;;;;;;;17.88;45.84;103709.66;5034859;28;20327;-45
2022/01/18 01:02:23;;;;;;;2.35;1.10;;;;;;;17.88;45.55;103713.25;5030511;28;20061;-49
2022/01/18 01:04:49;;;;;;;2.28;1.10;;;;;;;17.85;45.64;103710.75;5026746;28;20042;-47
2022/01/18 01:07:20;;;;;;;1.92;1.23;;;;;;;17.88;45.83;103709.66;5026520;28;20027;-48
2022/01/18 01:09:45;;;;;;;4.10;1.30;;;;;;;17.86;45.69;103707.09;5026169;28;20033;-45
2022/01/18 01:12:11;;;;;;;1.50;0.95;;;;;;;17.84;45.72;103700.03;5034674;28;20034;-46
2022/01/18 01:14:38;;;;;;;2.50;1.05;;;;;;;17.86;45.59;103701.69;5027362;28;20034;-46
2022/01/18 01:17:17;;;;;;;3.35;1.35;;;;;;;17.80;45.84;103704.78;5015902;28;20041;-48
2022/01/18 01:33:57;;;;;;;2.20;1.10;;;;;;;17.79;45.73;103705.72;5019499;28;20063;-46
2022/01/18 01:36:45;;;;;;;2.58;1.30;;;;;;;17.79;45.96;103707.53;5034166;28;20048;-47
2022/01/18 01:44:27;;;;;;;2.40;1.08;;;;;;;17.75;45.71;103714.94;5045573;28;20097;-46
2022/01/18 01:46:52;;;;;;;3.00;1.48;;;;;;;17.75;46.00;103725.69;5028068;28;20018;-48
2022/01/18 01:49:19;;;;;;;2.05;1.10;;;;;;;17.76;45.63;103729.28;5021055;28;20120;-47
2022/01/18 01:51:47;;;;;;;2.22;1.00;;;;;;;17.69;45.72;103718.84;5045336;28;20552;-47
2022/01/18 01:54:12;;;;;;;2.10;1.00;;;;;;;17.72;45.83;103728.56;5041214;28;20041;-48
2022/01/18 01:56:38;;;;;;;3.65;1.50;;;;;;;17.72;45.83;103723.19;5032990;28;20081;-46
2022/01/18 01:59:04;;;;;;;3.38;1.45;;;;;;;17.72;45.76;103725.88;5045003;28;20049;-44
2022/01/18 02:01:29;;;;;;;2.20;1.10;;;;;;;17.72;45.87;103717.78;5044927;28;20694;-45
2022/01/18 02:03:56;;;;;;;3.10;1.27;;;;;;;17.72;45.64;103723.19;5043612;28;20037;-45
2022/01/18 02:06:22;;;;;;;1.80;1.10;;;;;;;17.71;45.87;103718.72;5026491;28;20036;-48
2022/01/18 02:08:48;;;;;;;3.05;1.30;;;;;;;17.70;45.75;103719.69;5036930;28;20021;-44
2022/01/18 02:11:13;;;;;;;2.30;1.15;;;;;;;17.69;45.78;103726.91;5041216;28;20061;-45
2022/01/18 02:13:40;;;;;;;2.72;1.30;;;;;;;17.69;45.85;103721.53;5032325;28;20060;-46
2022/01/18 02:24:01;;;;;;;2.50;1.20;;;;;;;17.68;45.82;103722.50;5042938;28;20091;-46
2022/01/18 02:26:26;;;;;;;2.58;1.30;;;;;;;17.67;45.72;103720.78;5029916;28;20041;-46
2022/01/18 02:28:52;;;;;;;2.05;1.50;;;;;;;17.67;45.68;103717.19;5035934;28;20449;-44
2022/01/18 02:31:20;;;;;;;2.72;1.42;;;;;;;17.66;45.81;103715.47;5044389;28;20025;-45
2022/01/18 02:33:46;;;;;;;1.75;1.10;;;;;;;17.66;45.86;103713.63;5044614;28;20083;-46
2022/01/18 02:36:11;;;;;;;2.90;1.33;;;;;;;17.66;45.75;103720.84;5036247;28;20060;-47
2022/01/18 02:38:36;;;;;;;2.15;1.27;;;;;;;17.66;45.79;103715.47;5043822;28;20032;-47
2022/01/18 02:41:02;;;;;;;2.65;1.20;;;;;;;17.65;45.74;103721.81;5035606;28;20049;-47
2022/01/18 02:43:50;;;;;;;2.80;1.45;;;;;;;17.64;45.70;103720.94;5036889;28;20025;-45
2022/01/18 02:46:15;;;;;;;2.42;1.20;;;;;;;17.63;45.87;103713.84;5043974;28;20052;-48
2022/01/18 02:48:40;;;;;;;2.85;1.27;;;;;;;17.62;45.63;103711.22;5010200;28;20089;-47
2022/01/18 02:51:05;;;;;;;2.45;1.20;;;;;;;17.61;45.66;103715.72;5043848;28;20044;-47
2022/01/18 02:53:31;;;;;;;2.78;1.10;;;;;;;17.60;45.79;103715.84;5036289;28;20033;-42
2022/01/18 02:55:58;;;;;;;1.75;1.20;;;;;;;17.60;45.71;103715.84;5033920;28;20025;-47
2022/01/18 02:58:28;;;;;;;2.22;1.20;;;;;;;17.58;45.74;103713.22;5043749;28;20036;-48
2022/01/18 03:03:38;;;;;;;2.30;1.40;;;;;;;17.55;45.79;103702.66;5017322;28;20024;-47
2022/01/18 03:06:05;;;;;;;2.28;1.52;;;;;;;17.55;45.62;103701.81;5039750;28;20057;-48
2022/01/18 03:08:31;;;;;;;1.58;1.02;;;;;;;17.53;45.56;103696.50;5043177;28;20032;-46
2022/01/18 03:10:57;;;;;;;2.25;1.40;;;;;;;17.53;45.78;103698.31;5043390;28;20115;-44
2022/01/18 03:13:23;;;;;;;2.63;1.55;;;;;;;17.50;45.85;103704.78;5024652;28;20225;-44
2022/01/18 03:15:48;;;;;;;2.20;1.20;;;;;;;17.51;45.80;103705.63;5036629;28;20077;-45
2022/01/18 03:18:14;;;;;;;1.92;1.40;;;;;;;17.43;45.71;103700.69;5028125;28;20030;-46
2022/01/18 03:20:39;;;;;;;2.38;1.30;;;;;;;17.49;45.80;103719.16;5032210;28;20036;-45
2022/01/18 03:23:10;;;;;;;3.15;1.67;;;;;;;17.47;45.84;103721.09;5032449;28;20040;-44
2022/01/18 03:28:04;;;;;;;2.92;1.20;;;;;;;17.46;45.66;103736.34;5028285;28;20022;-46
2022/01/18 03:30:29;;;;;;;;;;;;;;;17.41;45.97;103727.66;5035827;28;20037;-44
2022/01/18 03:32:55;;;;;;;3.28;1.50;;;;;;;17.43;45.89;103741.03;5034435;28;20039;-44
2022/01/18 03:35:21;;;;;;;2.88;1.40;;;;;;;17.41;45.98;103734.88;5043475;28;20060;-47
2022/01/18 03:37:46;;;;;;;2.35;1.20;;;;;;;17.39;45.90;103737.66;5034907;28;20053;-46
2022/01/18 03:40:11;;;;;;;3.15;1.40;;;;;;;17.39;45.77;103736.81;5042323;28;20045;-46
2022/01/18 03:42:42;;;;;;;3.22;1.40;;;;;;;17.39;45.83;103736.81;5035323;28;20025;-49
2022/01/18 03:45:10;;;;;;;3.08;1.63;;;;;;;17.37;46.04;103739.56;5024497;28;20084;-46
2022/01/18 03:47:36;;;;;;;3.17;1.30;;;;;;;17.37;46.01;103746.78;5024099;28;20018;-51
2022/01/18 03:50:04;;;;;;;1.63;1.00;;;;;;;17.36;45.92;103750.41;5006236;28;20061;-51
2022/01/18 03:52:30;;;;;;;2.15;1.02;;;;;;;17.31;46.06;103745.31;5032206;28;20033;-49
2022/01/18 03:54:55;;;;;;;2.65;1.60;;;;;;;17.34;45.95;103746.97;5039069;28;20221;-49
2022/01/18 03:57:20;;;;;;;2.90;1.38;;;;;;;17.34;45.96;103753.22;5042840;28;20083;-48
2022/01/18 03:59:46;;;;;;;1.27;1.17;;;;;;;17.34;46.00;103758.59;5029317;28;20030;-47
2022/01/18 04:02:12;;;;;;;2.05;1.10;;;;;;;17.33;45.88;103762.25;5032571;28;20022;-47
2022/01/18 04:04:38;;;;;;;2.00;1.25;;;;;;;17.31;45.96;103753.38;5042778;28;20029;-50
2022/01/18 04:07:04;;;;;;;1.95;1.20;;;;;;;17.32;45.93;103765.88;5042824;28;20030;-44
2022/01/18 04:09:30;;;;;;;1.95;1.33;;;;;;;17.31;46.00;103765.97;5038671;28;20029;-47
2022/01/18 04:11:55;;;;;;;1.65;1.15;;;;;;;17.31;45.74;103764.13;5037086;28;20037;-47
2022/01/18 04:14:20;;;;;;;1.90;1.20;;;;;;;17.30;45.94;103780.38;5026126;28;20482;-44
2022/01/18 04:17:02;;;;;;;1.63;1.10;;;;;;;17.29;45.88;103781.31;5023538;28;20414;-46
2022/01/18 04:27:26;;;;;;;4.22;1.30;;;;;;;17.28;45.93;103784.94;4973853;28;20045;-44
2022/01/18 04:29:51;;;;;;;3.25;1.40;;;;;;;17.27;45.91;103780.53;5035357;28;20128;-45
2022/01/18 04:32:16;;;;;;;2.10;1.35;;;;;;;17.26;45.85;103779.69;5032902;28;20068;-49
2022/01/18 04:34:41;;;;;;;1.85;1.23;;;;;;;17.25;45.85;103777.94;5029816;28;20057;-47
2022/01/18 04:37:07;;;;;;;1.90;1.00;;;;;;;17.25;46.06;103786.00;5027013;28;20030;-44
2022/01/18 04:39:37;;;;;;;1.75;1.10;;;;;;;17.24;45.98;103778.88;5026607;28;20084;-46
2022/01/18 04:42:03;;;;;;;2.45;1.15;;;;;;;17.24;45.93;103777.06;5046188;28;20037;-46
2022/01/18 04:49:49;;;;;;;1.85;1.17;;;;;;;17.23;45.87;103782.53;5038506;28;20048;-48
2022/01/18 04:52:15;;;;;;;2.58;1.23;;;;;;;17.23;45.74;103775.31;5038071;28;20028;-46
2022/01/18 04:54:43;;;;;;;1.38;1.10;;;;;;;17.19;45.93;103764.84;5037341;28;20681;-45
2022/01/18 04:59:34;;;;;;;1.58;1.13;;;;;;;17.21;45.96;103768.31;5046509;28;20025;-44
2022/01/18 05:02:00;;;;;;;3.03;1.05;;;;;;;17.21;45.84;103768.31;5046089;28;20033;-49
2022/01/18 05:04:25;;;;;;;3.40;1.55;;;;;;;17.19;45.53;103763.00;5043315;28;20151;-48
2022/01/18 05:06:52;;;;;;;2.80;1.27;;;;;;;17.19;46.02;103765.69;5037075;28;20021;-44
2022/01/18 05:09:18;;;;;;;1.90;1.10;;;;;;;17.20;45.89;103763.88;5035405;28;20056;-46
2022/01/18 05:12:07;;;;;;;1.75;1.30;;;;;;;17.18;45.94;103758.59;5043787;28;20033;-48
2022/01/18 05:14:35;;;;;;;;;;;;;;;17.17;46.10;103759.56;5038953;28;20164;-43
2022/01/18 05:17:09;;;;;;;2.30;1.45;;;;;;;17.19;45.84;103762.16;5036431;28;19925;-46
2022/01/18 05:20:02;;;;;;;2.60;1.20;;;;;;;17.18;45.94;103761.28;5036720;28;20044;-45
2022/01/18 05:25:11;;;;;;;2.22;1.00;;;;;;;17.19;45.88;103754.09;5035420;28;20052;-46
2022/01/18 05:27:36;;;;;;;1.88;1.08;;;;;;;17.18;45.92;103750.53;5038652;28;20033;-45
2022/01/18 05:30:02;;;;;;;1.70;1.20;;;;;;;17.19;45.95;103757.63;5020960;28;20052;-47
2022/01/18 05:32:27;;;;;;;1.23;0.90;;;;;;;17.20;46.01;103755.81;5037927;28;20095;-46
2022/01/18 05:34:52;;;;;;;2.05;1.15;;;;;;;17.17;45.94;103756.88;5035233;28;20034;-44
2022/01/18 05:37:17;;;;;;;2.15;1.17;;;;;;;17.18;46.02;103763.13;5036437;28;20034;-46
2022/01/18 05:39:43;;;;;;;1.50;1.15;;;;;;;17.19;46.05;103764.84;5024699;28;20113;-46
2022/01/18 05:42:08;;;;;;;2.05;1.20;;;;;;;17.09;45.97;103740.31;5018825;28;20053;-45
2022/01/18 05:44:34;;;;;;;1.60;1.00;;;;;;;17.13;46.12;103749.94;5019153;28;20126;-45
2022/01/18 05:46:59;;;;;;;1.77;1.17;;;;;;;17.17;45.96;103754.19;5021781;28;20032;-48
2022/01/18 05:49:24;;;;;;;1.38;1.02;;;;;;;17.20;45.96;103761.19;5019975;28;20057;-45
2022/01/18 05:51:49;;;;;;;2.85;1.10;;;;;;;17.12;46.05;103752.69;5017818;28;20049;-46
2022/01/18 05:54:15;;;;;;;2.08;1.15;;;;;;;17.21;46.20;103760.25;5018332;28;20044;-45
2022/01/18 05:56:40;;;;;;;1.67;1.00;;;;;;;17.15;46.04;103752.53;5021746;28;20072;-46
2022/01/18 05:59:06;;;;;;;1.33;1.00;;;;;;;17.20;46.03;103759.41;5019159;28;20054;-47
2022/01/18 06:01:35;;;;;;;1.60;0.95;;;;;;;17.20;46.29;103758.50;5018077;28;20069;-46
2022/01/18 06:09:12;;;;;;;1.35;0.90;;;;;;;17.20;46.34;103759.41;5017316;28;20112;-45
2022/01/18 06:11:37;;;;;;;1.50;0.90;;;;;;;17.14;46.20;103754.34;5016080;28;20520;-48
2022/01/18 06:14:03;;;;;;;0.90;0.80;;;;;;;17.20;46.28;103766.56;5003640;28;20033;-49
2022/01/18 06:16:29;;;;;;;1.60;1.05;;;;;;;17.17;46.21;103767.63;5012052;28;20032;-45
2022/01/18 06:18:55;;;;;;;2.13;1.27;;;;;;;17.21;46.22;103777.25;5009630;28;20490;-47
2022/01/18 06:21:21;;;;;;;1.42;1.00;;;;;;;17.21;46.35;103771.00;5008997;28;20061;-49
2022/01/18 06:23:46;;;;;;;1.90;1.20;;;;;;;17.22;46.45;103772.75;4987684;28;20030;-49
2022/01/18 06:26:16;;;;;;;2.20;1.10;;;;;;;17.22;46.43;103775.44;5021063;28;20064;-50
2022/01/18 06:28:45;;;;;;;2.53;1.08;;;;;;;17.22;46.41;103778.97;5024842;28;20010;-50
2022/01/18 06:31:11;;;;;;;1.20;1.00;;;;;;;17.20;46.46;103783.59;5021728;28;20046;-47
2022/01/18 06:33:36;;;;;;;1.23;1.10;;;;;;;17.20;46.47;103785.38;5022254;28;20038;-49
2022/01/18 06:36:02;;;;;;;1.98;1.00;;;;;;;17.19;46.49;103792.59;5024292;28;20025;-46
2022/01/18 06:38:27;;;;;;;3.85;2.28;;;;;;;17.19;46.57;103791.72;4989816;28;20022;-46
2022/01/18 06:40:52;;;;;;;2.13;1.10;;;;;;;17.19;46.60;103797.97;5017248;28;20294;-47
2022/01/18 06:43:17;;;;;;;1.73;0.90;;;;;;;17.17;46.56;103796.34;5024574;28;20025;-45
2022/01/18 06:45:43;;;;;;;1.25;0.90;;;;;;;17.20;46.55;103793.44;5024475;28;20025;-48
2022/01/18 06:48:08;;;;;;;2.22;1.00;;;;;;;17.18;46.57;103798.94;5014803;28;20430;-49
2022/01/18 06:50:34;;;;;;;1.48;1.05;;;;;;;17.19;46.67;103797.97;4996554;28;20034;-47
2022/01/18 06:53:00;;;;;;;1.08;0.90;;;;;;;17.19;46.76;103803.34;4997777;28;20041;-48
2022/01/18 06:55:26;;;;;;;1.92;1.10;;;;;;;17.12;46.73;103790.31;5017303;28;20021;-47
2022/01/18 06:57:51;;;;;;;1.15;0.90;;;;;;;17.18;46.77;103798.94;5021546;28;20026;-45
2022/01/18 07:00:17;;;;;;;1.50;1.02;;;;;;;17.11;46.62;103786.78;5016319;28;20065;-50
2022/01/18 07:02:43;;;;;;;1.52;0.93;;;;;;;17.20;46.66;103797.03;5002359;28;20029;-48
2022/01/18 07:05:08;;;;;;;1.58;0.88;;;;;;;17.20;46.86;103794.34;4999651;28;20631;-45
2022/01/18 07:07:33;;;;;;;2.28;1.00;;;;;;;17.16;46.53;103799.97;5015939;28;20063;-46
2022/01/18 07:09:58;;;;;;;1.58;1.23;;;;;;;17.21;46.69;103808.66;5015490;28;20060;-47
2022/01/18 07:12:25;;;;;;;1.48;1.08;;;;;;;17.21;46.69;103819.41;5013419;28;20109;-47
2022/01/18 07:14:50;;;;;;;1.33;1.17;;;;;;;17.21;46.82;103824.78;5015343;28;20112;-46
2022/01/18 07:17:15;;;;;;;1.45;0.90;;;;;;;17.20;46.67;103815.84;5014274;28;20069;-47
2022/01/18 07:19:41;;;;;;;1.00;0.90;;;;;;;17.21;46.87;103816.72;5015292;28;20034;-46
2022/01/18 07:22:06;;;;;;;1.48;0.90;;;;;;;17.15;46.92;103815.22;5000288;28;20045;-46
2022/01/18 07:27:06;;;;;;;1.58;1.20;;;;;;;17.22;46.86;103831.88;5016476;28;20034;-48
2022/01/18 07:29:32;;;;;;;2.25;1.00;;;;;;;17.18;46.89;103830.31;5017826;28;20022;-48
2022/01/18 07:31:57;;;;;;;2.13;1.30;;;;;;;17.19;46.84;103827.53;5002100;28;20048;-54
2022/01/18 07:34:23;;;;;;;1.50;1.10;;;;;;;17.20;46.94;103823.91;5012244;28;20061;-51
2022/01/18 07:36:48;;;;;;;2.10;1.25;;;;;;;17.23;46.92;103825.56;5011924;28;20034;-48
2022/01/18 07:39:13;;;;;;;2.58;1.23;;;;;;;17.25;46.86;103829.03;5006639;28;20045;-47
2022/01/18 07:41:39;;;;;;;3.53;1.25;;;;;;;17.23;46.70;103818.34;5016273;28;20037;-49
2022/01/18 07:44:05;;;;;;;2.25;1.30;;;;;;;17.29;46.69;103829.69;5038017;28;20030;-47
2022/01/18 07:46:30;;;;;;;2.72;1.25;;;;;;;17.32;46.62;103832.22;5040255;28;20056;-47
2022/01/18 07:48:55;;;;;;;3.13;1.20;;;;;;;17.33;46.68;103832.16;5043088;28;20037;-51
2022/01/18 07:51:20;;;;;;;2.83;1.10;;;;;;;17.32;46.53;103830.41;5036222;28;20041;-51
2022/01/18 07:53:46;;;;;;;3.50;1.70;;;;;;;17.36;46.51;103841.84;5031578;28;20033;-53
2022/01/18 07:56:11;;;;;;;3.85;1.25;;;;;;;17.37;46.53;103844.44;5036344;28;20490;-48
2022/01/18 07:58:36;;;;;;;3.22;1.30;;;;;;;17.36;46.36;103842.72;5042168;28;20036;-51
2022/01/18 08:01:01;;;;;;;3.42;1.50;;;;;;;17.38;46.46;103845.34;5043117;28;20055;-50
2022/01/18 08:03:29;;;;;;;3.35;1.20;;;;;;;17.39;46.31;103850.63;5042835;28;20029;-53
2022/01/18 08:05:54;;;;;;;1.40;1.30;;;;;;;17.39;46.38;103850.63;5042629;28;20030;-49
2022/01/18 08:08:20;;;;;;;2.03;1.20;;;;;;;17.40;46.13;103846.97;5042376;28;20508;-49
2022/01/18 08:10:45;;;;;;;2.10;1.23;;;;;;;17.40;46.33;103846.97;5041999;28;20021;-48
2022/01/18 08:13:10;;;;;;;1.98;1.30;;;;;;;17.40;46.22;103848.81;5042999;28;20021;-47
2022/01/18 08:15:39;;;;;;;2.60;1.55;;;;;;;17.41;46.33;103846.00;5043026;28;20474;-48
2022/01/18 08:18:12;;;;;;;2.33;1.33;;;;;;;17.42;46.37;103836.16;5031585;28;20033;-48
2022/01/18 08:20:37;;;;;;;1.92;1.13;;;;;;;17.42;46.12;103839.69;5030795;28;20037;-49
2022/01/18 08:23:03;;;;;;;2.60;1.17;;;;;;;17.42;46.32;103845.09;5016859;28;20209;-50
2022/01/18 08:25:29;;;;;;;4.70;1.38;;;;;;;17.43;46.33;103843.25;5033887;28;20036;-48
2022/01/18 08:27:55;;;;;;;1.83;1.17;;;;;;;17.44;46.20;103840.47;5041782;28;20028;-47
2022/01/18 08:30:20;;;;;;;1.70;1.20;;;;;;;17.43;46.15;103836.03;5035734;28;20029;-51
2022/01/18 08:32:47;;;;;;;3.05;1.35;;;;;;;17.44;46.18;103837.78;5026948;28;20025;-50
2022/01/18 08:35:12;;;;;;;1.80;0.80;;;;;;;17.43;46.13;103829.81;5023360;28;20030;-47
2022/01/18 08:37:37;;;;;;;3.38;1.10;;;;;;;17.44;46.10;103835.09;5023122;28;20030;-49
2022/01/18 08:40:04;;;;;;;1.55;1.00;;;;;;;17.44;46.12;103837.78;5030902;28;20068;-46
2022/01/18 08:42:29;;;;;;;2.08;1.13;;;;;;;17.44;46.32;103840.47;5042200;28;20060;-50
2022/01/18 08:44:54;;;;;;;2.08;1.05;;;;;;;17.46;46.06;103837.72;5042094;28;20033;-47
2022/01/18 08:47:19;;;;;;;2.58;1.17;;;;;;;17.46;46.06;103832.34;5042484;28;20034;-46
2022/01/18 08:49:45;;;;;;;2.20;1.17;;;;;;;17.36;45.99;103809.59;5040969;28;20393;-46
2022/01/18 08:52:11;;;;;;;2.40;1.08;;;;;;;17.47;45.94;103834.06;5032610;28;20053;-49
2022/01/18 08:54:36;;;;;;;4.57;2.40;;;;;;;17.44;46.05;103824.31;5027795;28;20082;-49
2022/01/18 08:57:02;;;;;;;5.95;3.22;;;;;;;17.45;45.92;103834.13;5033717;28;20030;-45
2022/01/18 08:59:29;;;;;;;10.63;5.10;;;;;;;17.51;46.05;103842.81;5042237;28;20508;-45
2022/01/18 09:01:54;;;;;;;9.60;5.78;;;;;;;17.51;45.94;103843.69;5026795;28;20021;-47
2022/01/18 09:04:20;;;;;;;13.27;6.55;;;;;;;17.52;46.03;103847.25;5032824;28;20065;-47
2022/01/18 09:06:48;;;;;;;11.63;6.78;;;;;;;17.47;45.98;103837.59;5028125;28;20037;-47
2022/01/18 09:09:16;;;;;;;13.37;7.33;;;;;;;17.50;45.99;103844.66;5028916;28;20061;-41
2022/01/18 09:11:41;;;;;;;10.98;7.05;;;;;;;17.49;46.20;103848.28;5026492;28;20088;-48
2022/01/18 09:14:06;;;;;;;9.10;6.13;;;;;;;17.52;46.28;103856.16;5023426;28;20083;-51
2022/01/18 09:16:31;;;;;;;11.13;6.38;;;;;;;17.53;46.55;103851.66;5010849;28;20033;-48
2022/01/18 09:18:57;;;;;;;11.30;6.03;;;;;;;17.58;46.14;103850.44;5034965;28;20037;-47
2022/01/18 09:21:23;;;;;;;9.32;5.68;;;;;;;17.61;46.57;103852.94;5022432;28;20089;-48
2022/01/18 09:23:48;;;;;;;8.45;5.43;;;;;;;17.62;46.55;103857.38;5032236;28;20029;-49
2022/01/18 09:26:13;;;;;;;9.55;5.43;;;;;;;17.65;46.45;103859.03;5030895;28;20055;-43
2022/01/18 09:28:39;;;;;;;8.10;5.45;;;;;;;17.68;46.64;103856.16;5016315;28;20036;-49
2022/01/18 09:31:05;;;;;;;8.02;4.75;;;;;;;17.65;46.61;103861.72;5011016;28;20045;-43
2022/01/18 09:33:30;;;;;;;9.02;5.53;;;;;;;17.71;46.64;103869.41;5031828;28;20390;-47
2022/01/18 09:35:55;;;;;;;9.70;5.13;;;;;;;17.75;46.60;103868.31;5034034;28;20046;-48
2022/01/18 09:38:21;;;;;;;10.93;5.80;;;;;;;17.77;46.67;103865.56;5035297;28;20037;-49
2022/01/18 09:40:46;;;;;;;7.38;4.55;;;;;;;17.79;46.58;103864.50;5031783;28;20045;-51
2022/01/18 09:43:14;;;;;;;6.20;4.15;;;;;;;17.84;46.65;103866.91;5027760;28;20033;-48
2022/01/18 09:45:41;;;;;;;7.68;4.47;;;;;;;17.85;46.51;103872.22;5009982;28;20084;-51
2022/01/18 09:48:08;;;;;;;11.27;5.25;;;;;;;17.88;46.21;103860.41;5008469;28;20025;-50
2022/01/18 09:50:34;;;;;;;6.38;4.40;;;;;;;17.88;46.22;103855.00;5032812;28;20576;-46
2022/01/18 09:53:01;;;;;;;6.75;4.32;;;;;;;17.90;46.13;103869.28;5027610;28;20034;-47
2022/01/18 09:55:30;;;;;;;7.32;4.28;;;;;;;17.93;46.14;103863.72;5026876;28;20036;-50
2022/01/18 09:57:56;;;;;;;;;;;;;;;17.91;46.11;103871.84;5032880;28;20030;-51
2022/01/18 10:00:24;;;;;;;6.88;4.07;;;;;;;17.93;45.96;103874.47;5034584;28;20459;-50
2022/01/18 10:02:49;;;;;;;7.10;4.18;;;;;;;17.92;45.78;103865.50;5032509;28;20059;-51
2022/01/18 10:05:28;;;;;;;6.97;4.32;;;;;;;17.94;45.99;103869.00;5044460;28;20080;-51
2022/01/18 10:08:16;;;;;;;9.52;4.05;;;;;;;17.96;45.72;103869.75;5037878;28;20068;-49
2022/01/18 10:10:46;;;;;;;7.82;4.00;;;;;;;17.97;45.74;103871.50;5025763;28;20048;-47
2022/01/18 10:13:23;;;;;;;6.55;3.83;;;;;;;17.98;45.71;103872.38;5039948;28;20033;-47
2022/01/18 10:16:05;;;;;;;8.30;4.55;;;;;;;17.98;45.61;103873.25;5044936;28;20517;-49
2022/01/18 10:18:34;;;;;;;5.93;3.70;;;;;;;17.98;45.60;103873.25;5044573;28;20068;-52
2022/01/18 10:21:00;;;;;;;6.53;3.67;;;;;;;17.98;45.52;103867.84;5044431;28;20067;-50
2022/01/18 10:23:25;;;;;;;8.45;3.42;;;;;;;17.99;45.42;103872.28;5044407;28;20069;-51
2022/01/18 10:25:52;;;;;;;5.55;3.50;;;;;;;17.99;45.33;103866.91;5043718;28;20088;-47
2022/01/18 10:28:28;;;;;;;5.55;3.15;;;;;;;18.01;45.48;103874.91;5029261;28;20022;-48
2022/01/18 10:30:54;;;;;;;6.97;3.67;;;;;;;18.01;45.35;103874.00;5033136;28;20036;-46
2022/01/18 10:33:26;;;;;;;4.55;3.30;;;;;;;18.02;45.34;103870.38;5032960;28;20093;-51
2022/01/18 10:36:12;;;;;;;4.72;2.90;;;;;;;18.03;45.45;103872.09;5036467;28;20021;-48
2022/01/18 10:38:44;;;;;;;5.93;3.22;;;;;;;17.98;45.19;103873.25;5035275;28;20063;-50
2022/01/18 10:41:28;;;;;;;11.50;4.10;;;;;;;18.03;45.34;103881.03;5025834;28;20045;-46
2022/01/18 10:44:14;;;;;;;6.10;3.50;;;;;;;18.04;45.26;103876.53;5044074;28;20445;-51
2022/01/18 10:46:50;;;;;;;7.38;3.72;;;;;;;18.03;45.35;103877.50;5035103;28;20034;-48
2022/01/18 10:49:31;;;;;;;5.38;3.15;;;;;;;18.03;45.06;103870.28;5024986;28;20425;-51
2022/01/18 10:52:28;;;;;;;4.63;3.22;;;;;;;18.02;45.12;103865.84;5036927;28;20035;-47
2022/01/18 10:54:54;;;;;;;5.38;3.10;;;;;;;18.02;45.39;103867.69;5009931;28;20048;-48
2022/01/18 10:57:22;;;;;;;4.30;3.25;;;;;;;18.06;45.47;103877.31;5033905;28;20029;-47
2022/01/18 10:59:50;;;;;;;5.20;2.90;;;;;;;18.05;45.34;103865.66;5032238;28;20120;-50
2022/01/18 11:02:20;;;;;;;7.82;3.47;;;;;;;18.09;45.61;103869.91;5009569;28;20054;-46
2022/01/18 11:04:47;;;;;;;5.82;3.08;;;;;;;18.12;45.55;103867.03;5014062;28;20037;-48
2022/01/18 11:07:14;;;;;;;4.15;2.80;;;;;;;18.11;45.68;103862.63;5031581;28;20501;-50
2022/01/18 11:09:40;;;;;;;5.65;3.10;;;;;;;18.07;45.40;103846.72;5030368;28;20085;-48
2022/01/18 11:12:07;;;;;;;4.05;2.53;;;;;;;18.17;45.60;103856.84;5032530;28;20057;-50
2022/01/18 11:14:33;;;;;;;4.15;2.53;;;;;;;18.19;45.63;103854.94;5026827;28;20041;-46
2022/01/18 11:16:59;;;;;;;5.38;2.63;;;;;;;18.21;45.64;103846.75;5027876;28;20089;-51
2022/01/18 11:21:53;;;;;;;4.60;2.90;;;;;;;18.25;45.23;103840.22;5022169;28;20073;-49
2022/01/18 11:24:19;;;;;;;4.53;3.00;;;;;;;18.23;45.46;103829.56;5030004;28;20049;-53
2022/01/18 11:26:45;;;;;;;4.03;2.85;;;;;;;18.23;45.33;103823.31;5028488;28;20033;-49
2022/01/18 11:29:12;;;;;;;4.72;2.65;;;;;;;18.29;45.38;103832.84;5025537;28;20076;-48
2022/01/18 11:31:38;;;;;;;5.28;2.92;;;;;;;18.32;45.22;103840.75;5025263;28;20113;-51
2022/01/18 11:34:05;;;;;;;5.75;2.95;;;;;;;18.34;45.30;103839.66;5006707;28;20092;-49
2022/01/18 11:36:39;;;;;;;3.47;2.50;;;;;;;18.27;45.47;103830.25;5014410;28;20032;-45
2022/01/18 11:39:10;;;;;;;4.90;2.80;;;;;;;18.37;45.46;103846.69;5016562;28;20041;-46
2022/01/18 11:41:36;;;;;;;4.05;2.25;;;;;;;18.37;45.49;103847.56;5022396;28;20044;-46
2022/01/18 11:44:19;;;;;;;4.57;2.28;;;;;;;18.39;45.21;103848.34;5032413;28;20034;-52
2022/01/18 11:46:50;;;;;;;4.30;2.60;;;;;;;18.41;45.30;103840.16;5030565;28;20040;-50
2022/01/18 11:49:21;;;;;;;3.42;2.22;;;;;;;18.40;45.26;103843.84;5027316;28;20041;-48
2022/01/18 11:51:49;;;;;;;4.95;2.75;;;;;;;18.40;45.12;103839.31;5027180;28;20055;-50
2022/01/18 11:54:40;;;;;;;3.45;2.30;;;;;;;18.41;45.06;103843.72;5037932;28;20032;-52
2022/01/18 11:57:20;;;;;;;3.03;1.90;;;;;;;18.42;45.13;103840.06;5027575;28;20041;-51
2022/01/18 11:59:46;;;;;;;3.33;2.13;;;;;;;18.41;45.32;103830.25;5025834;28;20521;-51
2022/01/18 12:02:29;;;;;;;5.22;2.67;;;;;;;18.44;45.03;103845.38;5022254;28;20060;-46
2022/01/18 12:04:56;;;;;;;3.30;1.92;;;;;;;18.45;45.07;103842.56;5026026;28;20025;-48
2022/01/18 12:07:34;;;;;;;3.45;2.20;;;;;;;18.48;45.16;103834.31;5027172;28;20025;-50
2022/01/18 12:10:01;;;;;;;3.58;2.28;;;;;;;18.47;45.08;103837.09;5030760;28;20037;-52
2022/01/18 12:12:39;;;;;;;3.10;1.98;;;;;;;18.50;45.02;103826.13;5032177;28;20030;-51
2022/01/18 12:15:04;;;;;;;2.90;1.98;;;;;;;18.47;45.24;103826.31;5033739;28;20053;-54
2022/01/18 12:17:40;;;;;;;3.28;2.13;;;;;;;18.53;45.27;103835.84;5018381;28;20038;-48
2022/01/18 12:20:05;;;;;;;3.90;2.35;;;;;;;18.52;45.25;103832.31;5016422;28;20513;-48
2022/01/18 12:23:00;;;;;;;2.95;2.00;;;;;;;18.54;45.23;103824.13;5035347;28;20048;-51
2022/01/18 12:25:27;;;;;;;3.65;1.60;;;;;;;18.54;45.37;103822.28;5001151;28;20061;-48
2022/01/18 12:27:55;;;;;;;2.65;1.90;;;;;;;18.56;44.98;103827.56;5039855;28;20097;-49
2022/01/18 12:30:39;;;;;;;4.28;2.70;;;;;;;18.55;45.36;103823.16;5030232;28;20052;-50
2022/01/18 12:33:15;;;;;;;3.45;1.98;;;;;;;18.57;45.36;103826.63;5026843;28;20033;-47
2022/01/18 12:35:40;;;;;;;2.83;2.03;;;;;;;18.56;45.24;103819.47;5042220;28;20037;-46
2022/01/18 12:38:10;;;;;;;4.93;2.35;;;;;;;18.56;45.27;103814.94;5041735;28;20026;-49
2022/01/18 12:40:42;;;;;;;2.30;1.65;;;;;;;18.58;45.08;103807.66;5034318;28;20045;-49